HESX - Sphinx Intl. Airport

HESX 190500Z 36004KT CAVOK 14/12 Q1013 NOSIG


Sceneries:

Scenery Link
HESX/SPX - FREEWARE - Sphinx International Airport for MSFS

Briefing & Aerodrome Charts:

To be uploaded soon! Stay tuned!


Our Partners

VATSIM

VATSIM is the Virtual Air Traffic Simulation network, connecting people from around the world flying online or acting as virtual Air Traffic Controllers.

VATMENA

VATME - VATSIM Middle East & North Africa Divison is part of the Africa and Middle East Region on the VATSIM Network.

Egyptair Virtual

Egyptair Virtual simulates the real life operations of Egyptair yet is not releated to the actual Egyptair.